Time;durP1;ratioP1;P1;durP2;ratioP2;P2;SDS_P1;SDS_P2;PMS_P1;PMS_P2;Temp;Humidity;BMP_temperature;BMP_pressure;BME280_temperature;BME280_humidity;BME280_pressure;Samples;Min_cycle;Max_cycle;Signal;HPM_P1;HPM_P2
2023/02/23 00:02:07;;;;;;;19.85;12.38;;;;;;;7.59;67.83;97552.34;10471261;28;20111;-78
2023/02/23 00:07:28;;;;;;;19.83;12.35;;;;;;;7.57;68.14;97543.88;10455951;28;20059;-78
2023/02/23 00:12:50;;;;;;;20.73;13.15;;;;;;;7.56;68.36;97538.91;10483464;28;20597;-78
2023/02/23 00:18:13;;;;;;;21.27;14.13;;;;;;;7.51;68.58;97543.41;10469543;28;20127;-79
2023/02/23 00:23:37;;;;;;;22.67;13.98;;;;;;;7.45;68.44;97534.63;10455793;28;20086;-79
2023/02/23 00:28:59;;;;;;;22.65;13.25;;;;;;;7.41;69.02;97540.59;10475837;28;20485;-79
2023/02/23 00:34:22;;;;;;;20.33;13.90;;;;;;;7.39;68.75;97534.16;10464230;28;20379;-78
2023/02/23 00:39:44;;;;;;;24.55;15.05;;;;;;;7.31;69.84;97525.19;10491777;28;20048;-79
2023/02/23 00:45:10;;;;;;;21.60;13.07;;;;;;;7.26;68.66;97523.44;10491880;28;20048;-78
2023/02/23 00:50:33;;;;;;;23.70;14.68;;;;;;;7.17;69.95;97533.91;10464561;28;20047;-79
2023/02/23 00:55:55;;;;;;;20.65;13.85;;;;;;;7.09;70.32;97538.84;10477486;28;20041;-78
2023/02/23 01:01:16;;;;;;;23.83;14.73;;;;;;;7.04;70.20;97544.63;10476604;28;20127;-78
2023/02/23 01:06:38;;;;;;;23.75;13.75;;;;;;;7.01;70.09;97529.16;10462881;28;20093;-78
2023/02/23 01:12:06;;;;;;;26.58;14.88;;;;;;;6.96;70.22;97536.44;10475977;28;20040;-79
2023/02/23 01:17:29;;;;;;;19.42;12.27;;;;;;;6.97;70.27;97540.69;10478018;28;20040;-79
2023/02/23 01:22:50;;;;;;;24.65;14.85;;;;;;;6.91;71.25;97536.69;10476216;28;20505;-78
2023/02/23 01:28:12;;;;;;;24.83;15.23;;;;;;;6.90;71.66;97527.63;10461786;28;20041;-79
2023/02/23 01:33:33;;;;;;;22.92;14.55;;;;;;;6.81;71.23;97525.53;10475399;28;20100;-78
2023/02/23 01:38:56;;;;;;;26.77;15.80;;;;;;;6.75;71.56;97522.28;10474747;28;20041;-79
2023/02/23 01:44:17;;;;;;;21.38;14.68;;;;;;;6.64;72.70;97522.78;10475103;28;20071;-78
2023/02/23 01:49:39;;;;;;;24.20;14.70;;;;;;;6.55;73.76;97516.59;10502642;28;20110;-78
2023/02/23 01:55:00;;;;;;;24.38;14.73;;;;;;;6.57;72.89;97514.00;10488863;28;20394;-79
2023/02/23 02:00:24;;;;;;;25.25;15.35;;;;;;;6.51;73.76;97507.25;10474533;28;20037;-79
2023/02/23 02:05:46;;;;;;;23.40;14.70;;;;;;;6.48;72.79;97500.06;10474730;28;20122;-79
2023/02/23 02:11:24;;;;;;;21.42;13.95;;;;;;;6.45;73.03;97503.97;10474157;28;20052;-79
2023/02/23 02:17:08;;;;;;;23.73;14.27;;;;;;;6.44;74.08;97497.69;10478581;28;20045;-78
2023/02/23 02:22:54;;;;;;;26.05;15.50;;;;;;;6.39;73.56;97493.16;10501014;28;20119;-78
2023/02/23 02:28:29;;;;;;;24.58;15.55;;;;;;;6.35;74.03;97495.59;10501046;28;20050;-78
2023/02/23 02:34:28;;;;;;;22.88;14.52;;;;;;;6.26;74.24;97496.97;10460333;28;20071;-79
2023/02/23 02:40:14;;;;;;;21.85;14.55;;;;;;;6.25;74.44;97495.50;10500581;28;20544;-79
2023/02/23 02:46:09;;;;;;;25.55;15.30;;;;;;;6.22;75.03;97493.16;10489293;28;20060;-79
2023/02/23 02:51:42;;;;;;;23.90;14.88;;;;;;;6.19;74.94;97494.31;10499701;28;20037;-78
2023/02/23 02:57:03;;;;;;;22.90;13.98;;;;;;;6.21;74.75;97497.97;10486348;28;20479;-78
2023/02/23 04:18:32;;;;;;;23.27;14.73;;;;;;;6.05;76.16;97509.78;10479907;28;20032;-79
2023/02/23 04:23:54;;;;;;;22.47;14.37;;;;;;;6.08;75.80;97516.94;10447247;28;20048;-78
2023/02/23 04:29:14;;;;;;;24.40;14.55;;;;;;;6.06;76.14;97517.53;10444304;28;20048;-78
2023/02/23 04:34:36;;;;;;;23.27;14.50;;;;;;;6.09;75.71;97523.97;10444726;28;20048;-78
2023/02/23 04:39:57;;;;;;;23.15;14.10;;;;;;;6.04;75.78;97520.13;10444107;28;20372;-78
2023/02/23 04:45:18;;;;;;;23.13;15.13;;;;;;;6.00;75.96;97517.78;10446949;28;20449;-79
2023/02/23 04:50:40;;;;;;;27.63;15.20;;;;;;;6.06;76.46;97523.06;10457665;28;20041;-78
2023/02/23 04:56:01;;;;;;;24.02;15.07;;;;;;;6.08;76.59;97520.47;10433081;28;20402;-78
2023/02/23 05:01:23;;;;;;;28.92;15.82;;;;;;;6.12;76.04;97522.84;10436549;28;20040;-78
2023/02/23 05:06:44;;;;;;;27.08;15.77;;;;;;;6.16;76.14;97517.59;10445129;28;20459;-79
2023/02/23 05:12:05;;;;;;;23.35;14.65;;;;;;;6.17;76.30;97522.56;10433255;28;20037;-79
2023/02/23 05:17:27;;;;;;;23.52;15.38;;;;;;;6.17;76.21;97527.38;10452893;28;20394;-79
2023/02/23 05:22:49;;;;;;;24.63;16.10;;;;;;;6.15;76.18;97521.69;10454151;28;20046;-79
2023/02/23 05:28:10;;;;;;;24.38;14.93;;;;;;;6.11;76.14;97518.59;10449644;28;20119;-79
2023/02/23 05:33:33;;;;;;;23.95;15.75;;;;;;;6.11;76.16;97515.81;10452488;28;20067;-79
2023/02/23 05:38:54;;;;;;;27.10;16.00;;;;;;;6.13;76.40;97518.75;10453282;28;20063;-78
2023/02/23 05:44:16;;;;;;;23.92;14.57;;;;;;;6.16;76.24;97529.44;10441537;28;20081;-80
2023/02/23 05:49:37;;;;;;;26.52;15.70;;;;;;;6.24;76.09;97543.22;10434172;28;20045;-79
2023/02/23 05:54:59;;;;;;;22.67;14.50;;;;;;;6.29;76.24;97537.44;10420104;28;20114;-79
2023/02/23 06:00:20;;;;;;;25.48;15.43;;;;;;;6.34;75.96;97530.16;10433247;28;20048;-79
2023/02/23 06:05:42;;;;;;;25.00;15.70;;;;;;;6.34;76.04;97524.63;10418650;28;20064;-78
2023/02/23 06:11:03;;;;;;;25.40;15.60;;;;;;;6.36;75.85;97527.53;10417166;28;20045;-78
2023/02/23 06:16:25;;;;;;;31.15;16.17;;;;;;;6.39;76.05;97534.00;10418865;28;20049;-79
2023/02/23 06:21:46;;;;;;;26.95;16.30;;;;;;;6.44;76.05;97528.19;10432530;28;20045;-79
2023/02/23 06:27:07;;;;;;;28.20;16.08;;;;;;;6.59;76.05;97539.13;10431065;28;20045;-79
2023/02/23 06:32:28;;;;;;;24.20;15.82;;;;;;;6.69;75.91;97541.97;10418370;28;20049;-79
2023/02/23 06:37:55;;;;;;;25.10;16.33;;;;;;;6.94;75.73;97543.84;10469402;28;20094;-79
2023/02/23 06:43:16;;;;;;;33.85;16.42;;;;;;;7.22;75.40;97540.50;10472261;28;20044;-78
2023/02/23 06:48:38;;;;;;;26.65;16.20;;;;;;;7.69;74.79;97546.81;10448363;28;20037;-79
2023/02/23 06:53:59;;;;;;;27.83;15.77;;;;;;;8.49;74.03;97550.63;10452468;28;20048;-79
2023/02/23 06:59:21;;;;;;;29.88;16.35;;;;;;;9.39;71.32;97550.03;10472099;28;20037;-79
2023/02/23 07:04:42;;;;;;;26.88;16.80;;;;;;;10.61;70.50;97560.19;10482900;28;20045;-79
2023/02/23 07:10:04;;;;;;;24.50;16.00;;;;;;;11.67;64.36;97559.06;10459038;28;20047;-79
2023/02/23 07:15:25;;;;;;;21.67;14.18;;;;;;;12.01;64.79;97566.03;10458406;28;20456;-79
2023/02/23 07:20:46;;;;;;;23.13;14.43;;;;;;;13.87;62.90;97556.63;10474569;28;20056;-80
2023/02/23 07:26:08;;;;;;;19.85;14.02;;;;;;;15.33;58.27;97557.41;10460227;28;20397;-80
2023/02/23 07:31:29;;;;;;;17.52;13.57;;;;;;;15.31;54.53;97560.16;10487415;28;20044;-80
2023/02/23 07:36:50;;;;;;;19.50;13.95;;;;;;;15.60;52.75;97557.28;10500540;28;20055;-79
2023/02/23 07:42:12;;;;;;;17.75;13.07;;;;;;;15.56;50.01;97562.72;10476653;28;20478;-77
2023/02/23 07:47:33;;;;;;;16.95;12.82;;;;;;;15.64;52.12;97568.72;10473672;28;20060;-77
2023/02/23 07:52:54;;;;;;;17.88;12.43;;;;;;;16.89;46.74;97563.47;10461727;28;20047;-77
2023/02/23 07:58:15;;;;;;;16.80;12.43;;;;;;;18.66;46.38;97563.56;10473055;28;20040;-78
2023/02/23 08:03:36;;;;;;;14.50;11.10;;;;;;;21.17;45.51;97571.34;10469793;28;20040;-81
2023/02/23 08:08:59;;;;;;;16.33;12.80;;;;;;;22.88;36.38;97575.53;10469350;28;20074;-79
2023/02/23 08:14:22;;;;;;;16.35;11.57;;;;;;;22.95;36.39;97568.50;10483482;28;20379;-79
2023/02/23 08:19:43;;;;;;;14.00;10.73;;;;;;;21.14;36.23;97576.25;10469749;28;20041;-78
2023/02/23 08:25:05;;;;;;;13.88;10.77;;;;;;;24.19;29.01;97570.19;10482897;28;20040;-80
2023/02/23 08:30:26;;;;;;;21.70;10.35;;;;;;;27.04;27.45;97576.88;10468937;28;20048;-80
2023/02/23 08:35:47;;;;;;;12.98;9.18;;;;;;;25.99;27.70;97578.06;10468467;28;20048;-79
2023/02/23 08:41:09;;;;;;;12.15;9.93;;;;;;;25.10;27.34;97575.41;10482573;28;20490;-79
2023/02/23 08:46:32;;;;;;;14.43;10.00;;;;;;;25.04;27.71;97569.63;10469083;28;20078;-79
2023/02/23 08:51:53;;;;;;;14.80;9.80;;;;;;;24.98;25.26;97575.97;10490561;28;20040;-79
2023/02/23 08:57:14;;;;;;;11.15;9.07;;;;;;;25.46;26.00;97568.47;10476790;28;20391;-73
2023/02/23 09:02:35;;;;;;;12.43;8.05;;;;;;;25.85;25.84;97569.41;10476291;28;20041;-80
2023/02/23 09:07:57;;;;;;;11.87;8.27;;;;;;;26.80;23.27;97577.56;10464928;28;20095;-80
2023/02/23 09:13:18;;;;;;;13.48;8.00;;;;;;;28.32;21.79;97567.25;10456827;28;20068;-80
2023/02/23 09:18:39;;;;;;;11.55;8.77;;;;;;;27.17;21.20;97574.72;10475836;28;20390;-79
2023/02/23 09:24:00;;;;;;;10.02;8.50;;;;;;;25.57;22.79;97567.09;10475792;28;20090;-78
2023/02/23 09:29:21;;;;;;;11.03;8.47;;;;;;;24.55;24.54;97569.19;10447891;28;20045;-83
2023/02/23 09:34:43;;;;;;;10.43;8.83;;;;;;;23.90;25.85;97565.59;10450285;28;20078;-81
2023/02/23 09:40:05;;;;;;;12.15;8.30;;;;;;;23.10;26.84;97561.63;10474588;28;20313;-82
2023/02/23 09:45:41;;;;;;;10.90;8.95;;;;;;;22.68;27.86;97567.34;10461345;28;20055;-82
2023/02/23 09:51:02;;;;;;;11.40;8.52;;;;;;;22.30;28.56;97558.84;10474541;28;20098;-82
2023/02/23 09:56:34;;;;;;;10.03;8.47;;;;;;;22.23;29.38;97562.97;10474460;28;20119;-83
2023/02/23 10:02:18;;;;;;;10.00;8.45;;;;;;;23.16;28.67;97555.28;10469404;28;20048;-83
2023/02/23 10:07:44;;;;;;;11.30;8.98;;;;;;;23.83;29.76;97555.53;10497677;28;20045;-84
2023/02/23 10:13:17;;;;;;;12.70;9.32;;;;;;;25.32;25.64;97558.41;10487608;28;20047;-83
2023/02/23 10:18:45;;;;;;;12.02;8.30;;;;;;;26.45;24.36;97568.22;10497589;28;20067;-82
2023/02/23 10:24:13;;;;;;;9.35;8.35;;;;;;;26.52;22.32;97555.34;10447463;28;20494;-82
2023/02/23 10:29:38;;;;;;;9.48;7.90;;;;;;;26.66;22.33;97560.38;10469653;28;20483;-80
2023/02/23 10:34:59;;;;;;;9.48;8.32;;;;;;;27.09;22.43;97550.38;10432236;28;20395;-81
2023/02/23 10:40:22;;;;;;;10.63;8.02;;;;;;;29.05;21.58;97553.09;10431202;28;20041;-82
2023/02/23 10:45:45;;;;;;;9.85;8.80;;;;;;;27.74;20.57;97552.41;10418024;28;20538;-80
2023/02/23 10:51:10;;;;;;;11.15;9.00;;;;;;;23.26;23.51;97543.34;10431213;28;20045;-81
2023/02/23 10:56:33;;;;;;;12.27;10.00;;;;;;;20.76;27.22;97539.91;10431524;28;20403;-80
2023/02/23 11:01:53;;;;;;;14.05;10.25;;;;;;;19.65;31.27;97529.84;10430784;28;20076;-79
2023/02/23 11:07:24;;;;;;;14.35;9.82;;;;;;;19.79;30.87;97528.84;10445172;28;20041;-74
2023/02/23 11:12:45;;;;;;;12.52;9.60;;;;;;;19.89;30.14;97518.50;10443872;28;20060;-77
2023/02/23 11:18:05;;;;;;;12.68;9.98;;;;;;;19.72;29.67;97520.16;10469419;28;20044;-80
2023/02/23 11:23:33;;;;;;;14.75;9.98;;;;;;;19.72;30.50;97496.78;10462119;28;20056;-80
2023/02/23 11:28:57;;;;;;;14.35;10.57;;;;;;;18.98;31.90;97501.66;10475475;28;20090;-79
2023/02/23 11:34:47;;;;;;;16.65;10.95;;;;;;;18.44;34.96;97499.25;10463509;28;20129;-80
2023/02/23 11:40:26;;;;;;;14.25;10.38;;;;;;;17.85;34.24;97488.75;10463774;28;20059;-81
2023/02/23 11:45:48;;;;;;;14.60;11.27;;;;;;;17.91;35.20;97483.34;10461945;28;20095;-80
2023/02/23 11:51:10;;;;;;;18.77;11.20;;;;;;;17.85;36.22;97482.41;10446596;28;20105;-79
2023/02/23 11:56:31;;;;;;;15.85;11.30;;;;;;;18.23;35.45;97488.63;10465694;28;20040;-79
2023/02/23 12:01:54;;;;;;;15.35;10.43;;;;;;;18.46;35.68;97478.81;10451707;28;20135;-80
2023/02/23 12:07:17;;;;;;;15.63;10.98;;;;;;;18.34;35.50;97481.97;10452140;28;20119;-80
2023/02/23 12:13:10;;;;;;;14.68;10.60;;;;;;;18.15;36.18;97468.63;10475898;28;20044;-79
2023/02/23 12:18:53;;;;;;;16.42;11.05;;;;;;;18.18;36.35;97467.28;10473561;28;20492;-80
2023/02/23 12:24:40;;;;;;;14.13;10.60;;;;;;;18.35;36.39;97463.63;10473040;28;20064;-79
2023/02/23 12:30:10;;;;;;;15.85;9.82;;;;;;;18.77;36.01;97460.72;10457991;28;20504;-80
2023/02/23 12:35:55;;;;;;;17.85;11.13;;;;;;;18.67;35.84;97452.66;10474402;28;20036;-79
2023/02/23 12:41:30;;;;;;;21.45;10.95;;;;;;;17.91;36.57;97449.47;10476671;28;20140;-81
2023/02/23 12:46:51;;;;;;;15.50;10.27;;;;;;;17.48;37.70;97446.50;10458997;28;20116;-79
2023/02/23 12:52:19;;;;;;;18.42;11.95;;;;;;;17.34;37.85;97447.44;10431690;28;20443;-79
2023/02/23 12:57:57;;;;;;;13.00;9.82;;;;;;;17.49;37.85;97431.03;10465605;28;20064;-79
2023/02/23 13:03:36;;;;;;;15.68;10.60;;;;;;;17.50;39.29;97426.81;10460133;28;20047;-80
2023/02/23 13:09:22;;;;;;;16.90;10.38;;;;;;;17.08;39.25;97424.66;10472283;28;20041;-79
2023/02/23 13:14:58;;;;;;;16.30;9.80;;;;;;;16.93;39.46;97430.41;10470356;28;20468;-80
2023/02/23 13:20:29;;;;;;;13.82;9.25;;;;;;;16.58;39.74;97414.94;10453717;28;20406;-79
2023/02/23 13:26:16;;;;;;;12.32;8.90;;;;;;;16.65;39.40;97411.00;10473557;28;20044;-80
2023/02/23 13:31:38;;;;;;;14.70;8.73;;;;;;;16.81;39.84;97408.84;10499423;28;20045;-79
2023/02/23 13:36:59;;;;;;;14.90;10.27;;;;;;;16.90;39.62;97409.16;10489282;28;20544;-80
2023/02/23 13:42:29;;;;;;;18.25;10.30;;;;;;;17.04;40.26;97398.38;10490360;28;20044;-79
2023/02/23 13:48:05;;;;;;;14.85;9.90;;;;;;;17.03;40.44;97405.41;10503425;28;20186;-79
2023/02/23 13:53:40;;;;;;;15.63;9.73;;;;;;;16.79;40.52;97399.56;10489814;28;20509;-80
2023/02/23 13:59:04;;;;;;;14.10;10.52;;;;;;;16.75;40.51;97408.59;10490374;28;20040;-79
2023/02/23 14:04:35;;;;;;;18.52;10.32;;;;;;;16.52;40.84;97400.63;10476922;28;20060;-77
2023/02/23 14:10:05;;;;;;;14.48;10.10;;;;;;;16.30;41.23;97398.38;10495019;28;20075;-77
2023/02/23 14:15:39;;;;;;;14.98;9.57;;;;;;;16.19;41.42;97399.34;10481914;28;20532;-78
2023/02/23 14:21:08;;;;;;;13.60;9.48;;;;;;;15.86;41.27;97405.75;10507411;28;20098;-79
2023/02/23 14:26:29;;;;;;;16.73;8.90;;;;;;;15.47;42.02;97397.75;10474837;28;20051;-78
2023/02/23 14:32:11;;;;;;;12.00;8.63;;;;;;;15.41;43.14;97394.69;10506573;28;20071;-78
2023/02/23 14:37:39;;;;;;;16.65;9.88;;;;;;;15.45;43.41;97392.06;10504217;28;20041;-78
2023/02/23 14:43:01;;;;;;;11.32;8.40;;;;;;;15.44;43.13;97382.13;10490576;28;20052;-78
2023/02/23 14:48:24;;;;;;;11.38;8.20;;;;;;;15.42;43.16;97382.06;10490128;28;20045;-78
2023/02/23 14:53:45;;;;;;;12.13;8.48;;;;;;;15.33;43.53;97383.06;10489874;28;20048;-78
2023/02/23 14:59:05;;;;;;;12.73;8.45;;;;;;;15.16;43.52;97388.00;10475974;28;20388;-78
2023/02/23 15:04:28;;;;;;;13.43;8.63;;;;;;;14.98;43.92;97389.28;10462584;28;20487;-78
2023/02/23 15:09:54;;;;;;;16.35;9.27;;;;;;;14.74;44.77;97388.91;10475698;28;20040;-78
2023/02/23 15:15:17;;;;;;;12.82;8.18;;;;;;;14.56;44.82;97386.69;10475609;28;20470;-78
2023/02/23 15:20:38;;;;;;;13.53;9.43;;;;;;;14.47;45.43;97384.88;10476319;28;20044;-78
2023/02/23 15:25:59;;;;;;;13.60;9.57;;;;;;;14.34;45.48;97374.41;10467510;28;20040;-79
2023/02/23 15:31:28;;;;;;;13.77;8.80;;;;;;;14.27;45.89;97375.47;10459612;28;20513;-77
2023/02/23 15:36:51;;;;;;;13.88;8.82;;;;;;;14.17;46.03;97363.78;10481094;28;20064;-76
2023/02/23 15:42:15;;;;;;;14.03;9.50;;;;;;;14.10;46.49;97364.84;10465066;28;20115;-76
2023/02/23 15:47:36;;;;;;;15.77;9.48;;;;;;;14.03;46.89;97367.38;10449492;28;20094;-77
2023/02/23 15:53:00;;;;;;;14.82;9.05;;;;;;;13.91;47.06;97358.38;10421252;28;20041;-76
2023/02/23 15:58:24;;;;;;;14.02;9.30;;;;;;;13.81;47.41;97362.75;10450240;28;20067;-77
2023/02/23 16:03:53;;;;;;;12.70;9.00;;;;;;;13.72;47.54;97356.03;10453430;28;20041;-77
2023/02/23 16:09:19;;;;;;;17.48;9.55;;;;;;;13.61;48.05;97357.63;10448256;28;20044;-79
2023/02/23 16:15:00;;;;;;;14.80;9.63;;;;;;;13.46;48.95;97358.97;10484028;28;20040;-79
2023/02/23 16:20:46;;;;;;;15.00;10.35;;;;;;;13.37;49.01;97348.69;10463258;28;20395;-79
2023/02/23 16:26:09;;;;;;;17.48;10.77;;;;;;;13.32;48.83;97358.28;10474044;28;20040;-76
2023/02/23 16:32:01;;;;;;;16.88;10.52;;;;;;;13.25;49.99;97362.09;10486554;28;20414;-78
2023/02/23 16:37:24;;;;;;;16.05;10.68;;;;;;;13.20;49.54;97348.50;10466859;28;20498;-77
2023/02/23 16:42:45;;;;;;;17.13;11.43;;;;;;;13.14;49.91;97360.84;10488430;28;20041;-76
2023/02/23 16:48:13;;;;;;;18.23;11.45;;;;;;;13.06;50.74;97359.69;10473129;28;20056;-75
2023/02/23 16:53:35;;;;;;;18.88;12.68;;;;;;;12.97;50.86;97355.03;10471714;28;20051;-76
2023/02/23 16:58:58;;;;;;;21.83;14.30;;;;;;;12.88;51.42;97365.81;10485624;28;20048;-76
2023/02/23 17:04:19;;;;;;;25.03;15.67;;;;;;;12.79;51.71;97368.78;10470110;28;20041;-75
2023/02/23 17:09:40;;;;;;;25.02;16.08;;;;;;;12.68;52.10;97367.53;10473124;28;20057;-75
2023/02/23 17:15:03;;;;;;;26.13;16.05;;;;;;;12.55;52.21;97368.25;10478174;28;20041;-76
2023/02/23 17:20:24;;;;;;;27.35;16.63;;;;;;;12.42;52.72;97360.50;10507689;28;20037;-76
2023/02/23 17:25:45;;;;;;;23.27;15.52;;;;;;;12.29;52.95;97365.47;10494213;28;20045;-75
2023/02/23 17:31:06;;;;;;;25.02;16.10;;;;;;;12.22;53.40;97360.88;10492082;28;20056;-75
2023/02/23 17:36:27;;;;;;;25.35;15.73;;;;;;;12.20;53.69;97363.56;10479564;28;20406;-75
2023/02/23 17:41:48;;;;;;;26.83;16.42;;;;;;;12.17;53.79;97362.00;10477782;28;20041;-75
2023/02/23 17:47:09;;;;;;;30.70;17.20;;;;;;;12.15;53.86;97356.28;10492489;28;20060;-75
2023/02/23 17:52:30;;;;;;;27.60;16.42;;;;;;;11.96;54.20;97362.19;10478083;28;20045;-75
2023/02/23 17:57:51;;;;;;;27.10;16.45;;;;;;;11.73;54.69;97344.16;10489682;28;20449;-76
2023/02/23 18:03:11;;;;;;;28.95;17.20;;;;;;;11.54;54.91;97352.84;10477632;28;20040;-77
2023/02/23 18:08:32;;;;;;;39.83;22.83;;;;;;;11.41;55.41;97356.28;10448662;28;20069;-74
2023/02/23 18:13:53;;;;;;;48.72;26.30;;;;;;;11.24;56.11;97348.28;10433997;28;20399;-75
2023/02/23 18:19:15;;;;;;;54.88;27.00;;;;;;;11.09;56.35;97346.72;10446808;28;20065;-75
2023/02/23 18:24:35;;;;;;;48.40;26.67;;;;;;;10.97;57.13;97343.22;10433520;28;20094;-75
2023/02/23 18:29:56;;;;;;;46.22;25.60;;;;;;;10.87;56.99;97340.53;10446770;28;20052;-75
2023/02/23 18:35:18;;;;;;;44.60;28.85;;;;;;;10.85;57.52;97337.63;10450632;28;20079;-77
2023/02/23 18:40:39;;;;;;;34.13;20.13;;;;;;;10.78;57.38;97346.97;10440281;28;20498;-77
2023/02/23 18:46:04;;;;;;;36.63;20.42;;;;;;;10.67;58.35;97339.31;10438212;28;20144;-77
2023/02/23 18:51:25;;;;;;;33.78;20.55;;;;;;;10.69;58.46;97342.25;10438156;28;20045;-78
2023/02/23 18:56:46;;;;;;;33.35;20.90;;;;;;;10.74;58.70;97338.38;10452589;28;20041;-78
2023/02/23 19:02:08;;;;;;;36.05;20.00;;;;;;;10.72;58.43;97344.56;10438746;28;20045;-78
2023/02/23 19:07:31;;;;;;;32.00;20.45;;;;;;;10.65;58.71;97345.53;10439312;28;20402;-77
2023/02/23 19:12:52;;;;;;;31.73;18.75;;;;;;;10.59;59.50;97337.50;10453180;28;20414;-76
2023/02/23 19:18:13;;;;;;;32.42;20.27;;;;;;;10.55;59.15;97337.25;10452136;28;20380;-77
2023/02/23 19:23:34;;;;;;;32.40;18.10;;;;;;;10.52;59.80;97330.09;10437332;28;20037;-77
2023/02/23 19:28:56;;;;;;;34.25;18.98;;;;;;;10.57;60.42;97328.28;10438482;28;20044;-77
2023/02/23 19:34:17;;;;;;;32.20;19.92;;;;;;;10.62;60.55;97326.47;10433414;28;20505;-77
2023/02/23 19:39:38;;;;;;;29.92;19.15;;;;;;;10.69;60.64;97325.50;10408085;28;20052;-77
2023/02/23 19:44:59;;;;;;;33.22;19.63;;;;;;;10.79;60.46;97317.72;10432390;28;20548;-77
2023/02/23 19:50:20;;;;;;;33.95;20.98;;;;;;;10.80;60.33;97335.94;10432468;28;20049;-76
2023/02/23 19:55:41;;;;;;;40.88;21.25;;;;;;;10.84;60.57;97319.44;10433207;28;20510;-77
2023/02/23 20:01:07;;;;;;;38.25;22.75;;;;;;;10.84;61.08;97319.44;10446735;28;20123;-77
2023/02/23 20:06:33;;;;;;;32.33;19.88;;;;;;;10.85;61.08;97315.31;10420271;28;20044;-76
2023/02/23 20:11:55;;;;;;;39.83;21.52;;;;;;;10.90;61.53;97305.81;10434610;28;20072;-77
2023/02/23 20:17:16;;;;;;;33.15;20.98;;;;;;;10.90;60.89;97300.22;10448393;28;20049;-77
2023/02/23 20:22:40;;;;;;;33.65;21.13;;;;;;;10.87;61.13;97312.63;10436026;28;20087;-77
2023/02/23 20:28:01;;;;;;;32.10;19.55;;;;;;;10.83;61.69;97301.22;10447865;28;20517;-77
2023/02/23 20:33:22;;;;;;;31.05;19.40;;;;;;;10.80;61.87;97299.63;10448096;28;20158;-77
2023/02/23 20:38:43;;;;;;;31.40;20.42;;;;;;;10.79;62.53;97298.19;10448019;28;20045;-76
2023/02/23 20:44:03;;;;;;;35.10;20.75;;;;;;;10.79;62.21;97290.53;10436710;28;20463;-78
2023/02/23 20:49:26;;;;;;;35.42;20.35;;;;;;;10.80;62.40;97285.66;10451509;28;20040;-77
2023/02/23 20:54:47;;;;;;;33.50;20.92;;;;;;;10.80;62.56;97274.50;10485682;28;20375;-77
2023/02/23 21:00:09;;;;;;;34.85;21.02;;;;;;;10.77;62.74;97281.31;10499219;28;20540;-77
2023/02/23 21:05:32;;;;;;;36.80;20.48;;;;;;;10.79;63.10;97267.47;10468703;28;20045;-77
2023/02/23 21:10:53;;;;;;;31.83;20.75;;;;;;;10.83;63.31;97268.44;10481694;28;20238;-76
2023/02/23 21:16:14;;;;;;;34.90;20.13;;;;;;;10.83;63.95;97273.31;10466680;28;20059;-77
2023/02/23 21:21:46;;;;;;;32.30;20.08;;;;;;;10.82;63.83;97261.41;10480605;28;20466;-77
2023/02/23 21:27:11;;;;;;;31.60;19.73;;;;;;;10.87;64.49;97267.94;10494815;28;20048;-77
2023/02/23 21:32:39;;;;;;;31.27;19.40;;;;;;;10.88;64.71;97263.81;10481284;28;20401;-77
2023/02/23 21:38:01;;;;;;;31.38;19.05;;;;;;;10.89;64.21;97257.63;10493924;28;20071;-76
2023/02/23 21:43:22;;;;;;;31.27;19.52;;;;;;;10.92;64.43;97241.72;10494138;28;20047;-79
2023/02/23 21:48:56;;;;;;;30.88;19.27;;;;;;;10.93;65.02;97243.19;10480675;28;20490;-80
2023/02/23 21:54:35;;;;;;;30.98;18.98;;;;;;;10.87;64.90;97242.81;10482822;28;20064;-79
2023/02/23 21:59:56;;;;;;;27.20;17.48;;;;;;;10.86;65.15;97244.16;10479881;28;20376;-79
2023/02/23 22:05:17;;;;;;;28.30;17.77;;;;;;;10.87;65.16;97249.13;10480997;28;20100;-79
2023/02/23 22:10:38;;;;;;;23.40;16.65;;;;;;;10.86;65.06;97253.25;10481088;28;20051;-79
2023/02/23 22:15:59;;;;;;;24.88;16.92;;;;;;;10.82;66.00;97243.94;10494508;28;20048;-79
2023/02/23 22:21:21;;;;;;;23.83;15.95;;;;;;;10.82;66.20;97239.06;10480368;28;20037;-79
2023/02/23 22:26:49;;;;;;;23.10;14.57;;;;;;;10.83;65.81;97234.94;10480167;28;20041;-79
2023/02/23 22:32:10;;;;;;;23.13;14.38;;;;;;;10.79;66.23;97239.56;10481857;28;20066;-79
2023/02/23 22:37:32;;;;;;;25.33;15.80;;;;;;;10.71;66.67;97231.44;10479831;28;20049;-79
2023/02/23 22:42:53;;;;;;;22.05;14.85;;;;;;;10.75;66.78;97228.16;10479229;28;20497;-80
2023/02/23 22:48:14;;;;;;;22.88;14.88;;;;;;;10.73;66.30;97225.25;10479200;28;20154;-79
2023/02/23 22:53:35;;;;;;;23.52;14.48;;;;;;;10.69;67.07;97228.53;10507794;28;20062;-79
2023/02/23 22:59:03;;;;;;;21.10;14.50;;;;;;;10.67;66.98;97222.09;10480017;28;20044;-79
2023/02/23 23:04:24;;;;;;;22.95;14.40;;;;;;;10.66;67.03;97220.66;10493180;28;20045;-79
2023/02/23 23:09:45;;;;;;;20.42;13.15;;;;;;;10.67;67.29;97210.94;10463754;28;20044;-79
2023/02/23 23:15:13;;;;;;;22.95;13.90;;;;;;;10.58;67.16;97207.66;10477725;28;20037;-80
2023/02/23 23:20:34;;;;;;;18.00;12.10;;;;;;;10.55;67.64;97200.50;10504728;28;20048;-79
2023/02/23 23:25:56;;;;;;;18.13;11.77;;;;;;;10.48;67.60;97201.47;10476038;28;20041;-79
2023/02/23 23:31:20;;;;;;;18.05;11.68;;;;;;;10.43;67.67;97196.28;10475814;28;20044;-80
2023/02/23 23:36:51;;;;;;;20.55;11.35;;;;;;;10.42;67.97;97187.19;10477048;28;20067;-79
2023/02/23 23:42:13;;;;;;;19.92;11.60;;;;;;;10.41;68.16;97182.94;10491254;28;20036;-80
2023/02/23 23:47:34;;;;;;;17.23;10.82;;;;;;;10.42;68.28;97181.63;10476501;28;20049;-78
2023/02/23 23:52:55;;;;;;;18.42;11.15;;;;;;;10.40;68.80;97173.09;10490815;28;20049;-79
2023/02/23 23:58:17;;;;;;;16.92;10.88;;;;;;;10.27;68.59;97168.88;10476217;28;20064;-80
